Time;durP1;ratioP1;P1;durP2;ratioP2;P2;SDS_P1;SDS_P2;PMS_P1;PMS_P2;Temp;Humidity;BMP_temperature;BMP_pressure;BME280_temperature;BME280_humidity;BME280_pressure;Samples;Min_cycle;Max_cycle;Signal;HPM_P1;HPM_P2
2021/12/24 00:01:40;;;;;;;397.73;58.15;;;5.60;99.90;;;;;;4781315;29;20053;-86
2021/12/24 00:04:09;;;;;;;327.50;55.80;;;5.60;99.90;;;;;;4792409;29;20038;-87
2021/12/24 00:06:38;;;;;;;425.15;58.50;;;5.70;99.90;;;;;;4777421;29;20049;-86
2021/12/24 00:09:05;;;;;;;370.65;56.70;;;5.70;99.90;;;;;;4792132;29;20039;-87
2021/12/24 00:11:32;;;;;;;469.25;60.60;;;5.70;99.90;;;;;;4793967;29;20069;-87
2021/12/24 00:14:00;;;;;;;466.42;61.30;;;5.70;99.90;;;;;;4792770;29;20074;-87
2021/12/24 00:16:36;;;;;;;447.02;61.53;;;5.80;99.90;;;;;;4778826;29;20160;-85
2021/12/24 00:19:15;;;;;;;460.38;61.42;;;5.80;99.90;;;;;;4769909;29;20151;-88
2021/12/24 00:35:07;;;;;;;403.35;58.58;;;5.80;99.90;;;;;;4806012;24;20923;-86
2021/12/24 00:35:27;;;;;;;457.65;58.40;;;5.90;99.90;;;;;;4782468;29;20110;-85
2021/12/24 00:37:53;;;;;;;447.75;58.42;;;5.90;99.90;;;;;;4767409;29;20042;-86
2021/12/24 00:40:20;;;;;;;457.88;60.13;;;5.90;99.90;;;;;;4743379;29;20043;-87
2021/12/24 00:42:56;;;;;;;424.95;56.00;;;5.90;99.90;;;;;;4758848;29;20038;-86
2021/12/24 00:45:26;;;;;;;391.38;53.80;;;5.90;99.90;;;;;;4772755;29;20050;-85
2021/12/24 00:47:53;;;;;;;339.95;51.03;;;5.90;99.90;;;;;;4782752;29;20058;-86
2021/12/24 00:50:26;;;;;;;367.83;51.88;;;5.90;99.90;;;;;;4764039;29;20046;-84
2021/12/24 00:55:43;;;;;;;363.88;51.42;;;5.90;99.90;;;;;;4778043;29;20143;-86
2021/12/24 00:58:09;;;;;;;317.00;48.85;;;6.00;99.90;;;;;;4750522;29;20119;-85
2021/12/24 01:00:37;;;;;;;300.33;47.95;;;6.00;99.90;;;;;;4746076;29;20575;-86
2021/12/24 01:03:06;;;;;;;266.65;45.47;;;6.00;99.90;;;;;;4769715;29;20047;-85
2021/12/24 01:05:34;;;;;;;284.35;45.67;;;6.00;99.90;;;;;;4771790;29;20051;-85
2021/12/24 01:08:01;;;;;;;314.10;46.72;;;6.00;99.90;;;;;;4756822;29;20058;-85
2021/12/24 01:10:31;;;;;;;286.40;44.17;;;6.10;99.90;;;;;;4760634;29;20473;-86
2021/12/24 01:12:57;;;;;;;209.30;40.20;;;6.10;99.90;;;;;;4787302;29;20546;-86
2021/12/24 01:15:24;;;;;;;219.65;40.88;;;6.10;99.90;;;;;;4745953;29;20526;-85
2021/12/24 01:18:19;;;;;;;204.07;39.22;;;6.10;99.90;;;;;;4781941;29;20039;-86
2021/12/24 01:20:45;;;;;;;273.58;40.95;;;6.10;99.90;;;;;;4767521;29;20155;-86
2021/12/24 01:25:44;;;;;;;192.15;35.55;;;6.20;99.90;;;;;;4787203;29;20058;-86
2021/12/24 01:39:13;;;;;;;163.75;32.03;;;6.30;99.90;;;;;;4771532;29;20051;-87
2021/12/24 01:44:27;;;;;;;126.10;29.25;;;6.40;99.90;;;;;;4775781;29;20153;-89
2021/12/24 01:46:55;;;;;;;109.97;28.05;;;6.40;99.90;;;;;;4770150;29;20406;-88
2021/12/24 01:49:21;;;;;;;123.80;29.20;;;6.40;99.90;;;;;;4758975;30;20523;-86
2021/12/24 01:51:47;;;;;;;103.22;28.13;;;6.50;99.90;;;;;;4764148;29;20055;-88
2021/12/24 01:54:13;;;;;;;135.50;30.48;;;6.50;99.90;;;;;;4762142;29;21319;-88
2021/12/24 01:56:39;;;;;;;90.20;26.33;;;6.50;99.90;;;;;;4763865;29;20118;-89
2021/12/24 01:59:05;;;;;;;100.57;27.63;;;6.60;99.90;;;;;;4756818;29;20043;-88
2021/12/24 02:01:31;;;;;;;98.57;26.80;;;6.70;99.90;;;;;;4763957;29;20053;-91
2021/12/24 02:03:57;;;;;;;123.57;28.23;;;6.60;99.90;;;;;;4743821;29;20050;-90
2021/12/24 02:06:22;;;;;;;108.68;28.10;;;6.70;99.90;;;;;;4761565;29;20097;-86
2021/12/24 02:08:48;;;;;;;121.70;28.63;;;6.70;99.90;;;;;;4748052;29;20388;-88
2021/12/24 02:11:14;;;;;;;79.00;24.50;;;6.70;99.90;;;;;;4756723;29;20158;-89
2021/12/24 02:13:43;;;;;;;73.05;22.65;;;6.80;99.90;;;;;;4773415;29;20054;-89
2021/12/24 02:16:20;;;;;;;94.55;25.67;;;6.80;99.90;;;;;;4761446;29;20325;-86
2021/12/24 02:29:57;;;;;;;116.10;27.30;;;6.90;99.90;;;;;;4781206;29;20047;-91
2021/12/24 02:32:23;;;;;;;89.65;25.58;;;6.90;99.90;;;;;;4761568;29;20038;-86
2021/12/24 02:34:49;;;;;;;118.68;27.95;;;6.90;99.90;;;;;;4757622;29;20407;-90
2021/12/24 02:37:15;;;;;;;117.93;27.75;;;7.00;99.90;;;;;;4763595;29;20047;-88
2021/12/24 02:39:41;;;;;;;115.80;27.52;;;7.00;99.90;;;;;;4763968;29;20054;-89
2021/12/24 02:42:13;;;;;;;125.38;27.23;;;7.00;99.90;;;;;;4763313;29;20040;-88
2021/12/24 02:44:39;;;;;;;90.72;24.58;;;7.00;99.90;;;;;;4761554;29;20134;-88
2021/12/24 02:47:13;;;;;;;113.22;26.30;;;7.00;99.90;;;;;;4775787;29;20121;-92
2021/12/24 02:55:06;;;;;;;87.22;22.88;;;7.10;99.90;;;;;;4783920;29;20047;-90
2021/12/24 02:57:34;;;;;;;64.45;20.13;;;7.10;99.90;;;;;;4778542;29;20109;-90
2021/12/24 03:00:06;;;;;;;73.30;21.08;;;7.10;99.90;;;;;;4760233;29;20047;-89
2021/12/24 03:02:32;;;;;;;58.65;19.17;;;7.10;99.90;;;;;;4760889;29;20136;-89
2021/12/24 03:04:58;;;;;;;80.40;21.67;;;7.20;99.90;;;;;;4758192;29;20081;-88
2021/12/24 03:07:24;;;;;;;83.68;22.63;;;7.20;99.90;;;;;;4776763;29;20055;-87
2021/12/24 03:09:53;;;;;;;107.85;24.13;;;7.30;99.90;;;;;;4759466;29;20080;-90
2021/12/24 03:12:19;;;;;;;57.83;18.98;;;7.30;99.90;;;;;;4774106;29;20049;-88
2021/12/24 03:14:45;;;;;;;53.95;18.02;;;7.30;99.90;;;;;;4746517;29;20047;-89
2021/12/24 03:17:16;;;;;;;75.25;20.00;;;7.30;99.90;;;;;;4762041;29;20062;-89
2021/12/24 03:19:42;;;;;;;58.78;17.75;;;7.40;99.90;;;;;;4766038;29;20147;-90
2021/12/24 03:24:53;;;;;;;86.07;19.85;;;7.40;99.90;;;;;;4788861;29;20070;-89
2021/12/24 03:27:22;;;;;;;77.90;19.77;;;7.40;99.90;;;;;;4768324;29;20044;-89
2021/12/24 03:29:50;;;;;;;71.15;19.83;;;7.50;99.90;;;;;;4772117;29;20380;-88
2021/12/24 03:32:16;;;;;;;75.93;20.92;;;7.50;99.90;;;;;;4770190;29;20039;-90
2021/12/24 03:34:42;;;;;;;116.20;24.48;;;7.50;99.90;;;;;;4768864;29;20092;-89
2021/12/24 03:37:11;;;;;;;131.30;26.60;;;7.60;99.90;;;;;;4774206;29;20499;-87
2021/12/24 03:39:37;;;;;;;137.93;26.92;;;7.60;99.90;;;;;;4772171;29;20396;-92
2021/12/24 03:42:12;;;;;;;117.60;26.63;;;7.60;99.90;;;;;;4765428;29;20096;-89
2021/12/24 03:44:44;;;;;;;123.93;27.10;;;7.70;99.90;;;;;;4770618;29;20046;-87
2021/12/24 03:47:19;;;;;;;166.87;29.90;;;7.70;99.90;;;;;;4760009;29;20535;-90
2021/12/24 03:54:58;;;;;;;141.95;30.98;;;7.80;99.90;;;;;;4794514;29;20521;-91
2021/12/24 03:57:39;;;;;;;138.80;32.22;;;7.90;99.90;;;;;;4754798;29;20054;-89
2021/12/24 04:00:21;;;;;;;173.02;32.70;;;8.00;99.90;;;;;;4779991;29;20547;-90
2021/12/24 04:02:47;;;;;;;;;;;8.00;99.90;;;;;;4776486;29;20183;-90
2021/12/24 04:05:14;;;;;;;142.88;31.13;;;8.10;99.90;;;;;;4777691;29;19921;-89
2021/12/24 04:07:40;;;;;;;133.52;30.92;;;8.10;99.90;;;;;;4778925;29;20526;-87
2021/12/24 04:10:36;;;;;;;137.38;30.80;;;8.10;99.90;;;;;;4788505;29;20062;-86
2021/12/24 04:12:56;;;;;;;164.93;32.35;;;8.20;99.90;;;;;;4784076;29;20466;-89
2021/12/24 04:15:22;;;;;;;206.88;34.60;;;8.20;99.90;;;;;;4761222;29;20078;-88
2021/12/24 04:17:49;;;;;;;121.53;30.42;;;8.20;99.90;;;;;;4764571;29;20043;-89
2021/12/24 04:25:47;;;;;;;126.32;28.67;;;8.30;99.90;;;;;;4793049;29;20281;-88
2021/12/24 04:28:13;;;;;;;105.93;27.70;;;8.30;99.90;;;;;;4779335;29;20118;-89
2021/12/24 04:30:45;;;;;;;144.35;29.95;;;8.30;99.90;;;;;;4784255;29;20039;-89
2021/12/24 04:33:20;;;;;;;133.23;29.08;;;8.30;99.90;;;;;;4763556;29;20157;-87
2021/12/24 04:35:57;;;;;;;153.93;32.13;;;8.30;99.90;;;;;;4765974;29;20240;-87
2021/12/24 04:51:56;;;;;;;149.75;34.35;;;8.40;99.90;;;;;;4793226;29;20123;-87
2021/12/24 05:05:26;;;;;;;224.88;42.03;;;8.40;99.90;;;;;;4763527;29;20047;-85
2021/12/24 05:10:24;;;;;;;148.75;35.67;;;8.40;99.90;;;;;;4789905;29;19925;-87
2021/12/24 05:12:50;;;;;;;139.05;36.47;;;8.50;99.90;;;;;;4753463;29;20095;-87
2021/12/24 05:15:17;;;;;;;140.02;36.42;;;8.50;99.90;;;;;;4760911;29;20117;-88
2021/12/24 05:22:59;;;;;;;152.68;38.80;;;8.40;99.90;;;;;;4792996;29;20043;-91
2021/12/24 05:25:27;;;;;;;174.85;39.97;;;8.40;99.90;;;;;;4765476;29;20554;-87
2021/12/24 05:27:55;;;;;;;135.50;36.38;;;8.40;99.90;;;;;;4758566;29;20043;-87
2021/12/24 05:30:23;;;;;;;100.38;33.72;;;8.40;99.90;;;;;;4765620;30;20093;-88
2021/12/24 05:32:49;;;;;;;137.85;37.95;;;8.40;99.90;;;;;;4776106;29;20042;-89
2021/12/24 05:35:18;;;;;;;120.13;34.75;;;8.40;99.90;;;;;;4757676;29;20043;-89
2021/12/24 05:37:44;;;;;;;166.68;38.85;;;8.50;99.90;;;;;;4776650;29;20043;-87
2021/12/24 05:40:10;;;;;;;134.15;35.55;;;8.50;99.90;;;;;;4769633;29;20081;-89
2021/12/24 05:42:36;;;;;;;116.22;34.58;;;8.50;99.90;;;;;;4762710;29;20047;-90
2021/12/24 05:45:05;;;;;;;136.30;36.75;;;8.50;99.90;;;;;;4777556;29;20134;-89
2021/12/24 05:47:32;;;;;;;125.47;35.50;;;8.50;99.90;;;;;;4742761;29;20043;-88
2021/12/24 05:50:00;;;;;;;143.80;36.85;;;8.50;99.90;;;;;;4777170;29;20043;-88
2021/12/24 05:52:26;;;;;;;112.15;33.40;;;8.50;99.90;;;;;;4774632;29;20130;-89
2021/12/24 05:54:52;;;;;;;165.50;37.65;;;8.50;99.90;;;;;;4773920;29;20046;-88
2021/12/24 05:57:19;;;;;;;127.18;37.70;;;8.50;99.90;;;;;;4762828;29;20042;-90
2021/12/24 05:59:45;;;;;;;128.68;34.70;;;8.50;99.90;;;;;;4777057;29;20567;-88
2021/12/24 06:02:11;;;;;;;125.18;36.53;;;8.50;99.90;;;;;;4755957;30;20051;-88
2021/12/24 06:04:40;;;;;;;120.80;36.00;;;8.40;99.90;;;;;;4750219;29;20051;-89
2021/12/24 06:07:06;;;;;;;109.00;35.60;;;8.50;99.90;;;;;;4771125;29;20047;-88
2021/12/24 06:09:33;;;;;;;111.20;35.63;;;8.50;99.90;;;;;;4783383;29;20074;-89
2021/12/24 06:11:58;;;;;;;91.90;31.23;;;8.50;99.90;;;;;;4789215;29;20074;-88
2021/12/24 06:14:24;;;;;;;115.63;34.97;;;8.50;99.90;;;;;;4750811;29;20062;-90
2021/12/24 06:17:00;;;;;;;98.35;32.40;;;8.50;99.90;;;;;;4749878;30;20528;-88
2021/12/24 06:19:26;;;;;;;117.22;33.67;;;8.50;99.90;;;;;;4763784;29;20039;-87
2021/12/24 06:21:57;;;;;;;92.68;31.38;;;8.50;99.90;;;;;;4768930;29;20440;-87
2021/12/24 06:24:23;;;;;;;112.43;30.80;;;8.40;99.90;;;;;;4745929;29;20444;-88
2021/12/24 06:26:49;;;;;;;81.90;29.17;;;8.40;99.90;;;;;;4778760;29;20512;-87
2021/12/24 06:29:16;;;;;;;91.85;29.52;;;8.40;99.90;;;;;;4765447;29;20307;-86
2021/12/24 06:31:42;;;;;;;73.57;26.60;;;8.40;99.90;;;;;;4775571;29;20095;-88
2021/12/24 06:34:07;;;;;;;61.67;24.35;;;8.40;99.90;;;;;;4765571;29;20043;-87
2021/12/24 06:36:36;;;;;;;83.95;25.50;;;8.40;99.90;;;;;;4771309;29;20084;-87
2021/12/24 06:39:06;;;;;;;80.32;26.63;;;8.40;99.90;;;;;;4777833;29;20624;-87
2021/12/24 06:41:35;;;;;;;61.97;23.30;;;8.40;99.90;;;;;;4778734;29;20081;-89
2021/12/24 06:44:03;;;;;;;79.38;23.33;;;8.40;99.90;;;;;;4780167;29;20043;-90
2021/12/24 06:46:29;;;;;;;59.97;22.42;;;8.40;99.90;;;;;;4771041;29;20046;-88
2021/12/24 06:48:56;;;;;;;56.80;20.15;;;8.40;99.90;;;;;;4773487;29;20074;-87
2021/12/24 06:51:23;;;;;;;70.57;23.80;;;8.40;99.90;;;;;;4760011;29;20047;-88
2021/12/24 06:53:49;;;;;;;66.60;22.38;;;8.40;99.90;;;;;;4758218;29;20043;-88
2021/12/24 06:56:16;;;;;;;73.13;23.15;;;8.40;99.90;;;;;;4759008;29;20534;-88
2021/12/24 06:58:42;;;;;;;62.63;22.02;;;8.30;99.90;;;;;;4749744;29;20142;-89
2021/12/24 07:01:08;;;;;;;64.43;22.55;;;8.40;99.90;;;;;;4769938;29;20411;-88
2021/12/24 07:03:34;;;;;;;66.57;22.33;;;8.40;99.90;;;;;;4769970;29;20070;-87
2021/12/24 07:06:00;;;;;;;53.20;20.08;;;8.30;99.90;;;;;;4777545;30;20111;-87
2021/12/24 07:08:26;;;;;;;57.63;21.02;;;8.30;99.90;;;;;;4779710;29;20050;-87
2021/12/24 07:10:53;;;;;;;63.42;20.80;;;8.30;99.90;;;;;;4767854;29;20121;-89
2021/12/24 07:13:19;;;;;;;60.97;21.20;;;8.30;99.90;;;;;;4755613;29;20381;-89
2021/12/24 07:15:44;;;;;;;63.15;19.88;;;8.30;99.90;;;;;;4765701;29;21111;-88
2021/12/24 07:18:10;;;;;;;61.33;19.88;;;8.30;99.90;;;;;;4762568;29;20043;-87
2021/12/24 07:20:36;;;;;;;75.53;22.55;;;8.30;99.90;;;;;;4772359;29;20131;-91
2021/12/24 07:23:02;;;;;;;63.40;21.20;;;8.30;99.90;;;;;;4760762;29;20134;-89
2021/12/24 07:25:28;;;;;;;58.28;20.55;;;8.30;99.90;;;;;;4791989;29;20503;-87
2021/12/24 07:27:54;;;;;;;62.05;20.70;;;8.30;99.90;;;;;;4766307;29;20050;-86
2021/12/24 07:30:21;;;;;;;69.65;20.80;;;8.30;99.90;;;;;;4751619;29;20047;-89
2021/12/24 07:32:48;;;;;;;64.45;20.35;;;8.30;99.90;;;;;;4751987;29;20047;-89
2021/12/24 07:35:17;;;;;;;72.43;20.77;;;8.30;99.90;;;;;;4767625;29;20035;-91
2021/12/24 07:37:43;;;;;;;58.67;18.75;;;8.30;99.90;;;;;;4765410;29;20057;-88
2021/12/24 07:40:16;;;;;;;64.30;20.23;;;8.20;99.90;;;;;;4781157;29;20151;-88
2021/12/24 07:42:43;;;;;;;65.32;19.10;;;8.20;99.90;;;;;;4782718;29;20080;-83
2021/12/24 07:45:10;;;;;;;59.17;19.55;;;8.20;99.90;;;;;;4765522;29;20047;-89
2021/12/24 07:47:40;;;;;;;68.82;20.23;;;8.20;99.90;;;;;;4775431;29;20042;-88
2021/12/24 07:53:02;;;;;;;62.55;18.02;;;8.20;99.90;;;;;;4785980;29;20055;-85
2021/12/24 07:55:29;;;;;;;58.45;17.02;;;8.10;99.90;;;;;;4777907;29;20047;-87
2021/12/24 07:57:55;;;;;;;48.95;17.52;;;8.10;99.90;;;;;;4773259;29;20042;-86
2021/12/24 08:00:23;;;;;;;59.50;17.08;;;8.10;99.90;;;;;;4781311;29;20400;-87
2021/12/24 08:02:49;;;;;;;68.47;18.50;;;8.10;99.90;;;;;;4777225;29;20526;-89
2021/12/24 08:05:18;;;;;;;61.88;16.95;;;8.10;99.90;;;;;;4752816;29;20404;-85
2021/12/24 08:07:48;;;;;;;50.95;17.25;;;8.10;99.90;;;;;;4755240;29;20051;-89
2021/12/24 08:10:15;;;;;;;50.45;16.55;;;8.10;99.90;;;;;;4775333;29;20077;-87
2021/12/24 08:12:41;;;;;;;46.28;16.10;;;8.10;99.90;;;;;;4764888;29;20096;-91
2021/12/24 08:15:07;;;;;;;54.65;15.20;;;8.10;99.90;;;;;;4773689;29;20055;-87
2021/12/24 08:17:35;;;;;;;56.65;15.02;;;8.10;99.90;;;;;;4769926;29;20047;-88
2021/12/24 08:20:00;;;;;;;52.33;15.40;;;8.10;99.90;;;;;;4779169;29;20083;-89
2021/12/24 08:22:26;;;;;;;59.78;14.88;;;8.10;99.90;;;;;;4773492;29;20142;-88
2021/12/24 08:24:52;;;;;;;55.15;15.60;;;8.10;99.90;;;;;;4771458;29;20052;-88
2021/12/24 08:27:19;;;;;;;41.83;14.43;;;8.10;99.90;;;;;;4783005;29;20043;-88
2021/12/24 08:29:45;;;;;;;52.85;14.00;;;8.10;99.90;;;;;;4758580;29;20111;-87
2021/12/24 08:32:14;;;;;;;57.60;14.85;;;8.10;99.90;;;;;;4775638;29;20483;-88
2021/12/24 08:34:40;;;;;;;64.07;15.70;;;8.10;99.90;;;;;;4767172;29;20046;-88
2021/12/24 08:37:06;;;;;;;49.70;13.95;;;8.10;99.90;;;;;;4776563;29;20046;-88
2021/12/24 08:39:33;;;;;;;42.00;14.68;;;8.10;99.90;;;;;;4750342;29;20075;-89
2021/12/24 08:42:00;;;;;;;55.28;15.10;;;8.10;99.90;;;;;;4764487;29;20193;-87
2021/12/24 08:44:29;;;;;;;58.60;15.13;;;8.10;99.90;;;;;;4776739;29;20042;-87
2021/12/24 08:46:55;;;;;;;54.83;14.70;;;8.10;99.90;;;;;;4775125;29;20039;-86
2021/12/24 08:49:26;;;;;;;48.80;14.80;;;8.10;99.90;;;;;;4770350;29;20053;-89
2021/12/24 08:51:51;;;;;;;58.20;15.90;;;8.10;99.90;;;;;;4765112;29;20054;-89
2021/12/24 08:54:21;;;;;;;45.80;15.73;;;8.10;99.90;;;;;;4777740;29;20035;-89
2021/12/24 08:56:50;;;;;;;49.70;13.57;;;8.10;99.90;;;;;;4761722;29;20047;-89
2021/12/24 08:59:19;;;;;;;47.15;13.60;;;8.10;99.90;;;;;;4777974;29;20047;-88
2021/12/24 09:01:45;;;;;;;50.97;15.82;;;8.10;99.90;;;;;;4781628;29;20043;-88
2021/12/24 09:04:12;;;;;;;52.40;14.93;;;8.10;99.90;;;;;;4761500;29;20051;-87
2021/12/24 09:06:39;;;;;;;57.83;16.52;;;8.10;99.90;;;;;;4776770;29;20051;-88
2021/12/24 09:09:10;;;;;;;68.20;15.63;;;8.10;99.90;;;;;;4769009;29;20038;-90
2021/12/24 09:11:41;;;;;;;56.00;14.75;;;8.10;99.90;;;;;;4778514;29;20047;-89
2021/12/24 09:14:08;;;;;;;68.00;15.88;;;8.10;99.90;;;;;;4778729;29;20054;-88
2021/12/24 09:16:37;;;;;;;60.22;15.35;;;8.10;99.90;;;;;;4778603;29;20103;-90
2021/12/24 09:19:13;;;;;;;70.78;15.52;;;8.10;99.90;;;;;;4762795;29;20043;-86
2021/12/24 09:21:39;;;;;;;61.67;15.27;;;8.10;99.90;;;;;;4772279;29;20039;-86
2021/12/24 09:24:07;;;;;;;56.00;13.63;;;8.10;99.90;;;;;;4766858;29;20411;-88
2021/12/24 09:26:39;;;;;;;48.42;15.07;;;8.10;99.90;;;;;;4765222;29;20039;-90
2021/12/24 09:29:11;;;;;;;56.42;14.43;;;8.10;99.90;;;;;;4762644;29;20125;-90
2021/12/24 09:31:37;;;;;;;61.00;15.43;;;8.10;99.90;;;;;;4774242;29;20396;-88
2021/12/24 09:34:04;;;;;;;54.25;15.05;;;8.10;99.90;;;;;;4772406;29;20039;-90
2021/12/24 09:36:39;;;;;;;70.32;15.30;;;8.10;99.90;;;;;;4769314;29;20039;-89
2021/12/24 09:39:06;;;;;;;61.38;15.30;;;8.10;99.90;;;;;;4769999;29;20102;-89
2021/12/24 09:41:35;;;;;;;54.35;13.25;;;8.10;99.90;;;;;;4776156;29;20058;-86
2021/12/24 09:44:03;;;;;;;56.15;13.32;;;8.10;99.90;;;;;;4780131;29;20061;-88
2021/12/24 09:46:30;;;;;;;55.42;13.35;;;8.10;99.90;;;;;;4787379;29;20077;-90
2021/12/24 09:49:02;;;;;;;49.38;13.13;;;8.10;99.90;;;;;;4777248;29;20257;-88
2021/12/24 09:51:29;;;;;;;65.90;14.02;;;8.10;99.90;;;;;;4779970;29;20059;-90
2021/12/24 09:53:59;;;;;;;49.97;13.18;;;8.10;99.90;;;;;;4784470;29;20177;-87
2021/12/24 09:56:25;;;;;;;59.00;14.43;;;8.10;99.90;;;;;;4778921;29;20555;-90
2021/12/24 09:58:51;;;;;;;64.57;14.32;;;8.10;99.90;;;;;;4762130;29;20130;-89
2021/12/24 10:01:39;;;;;;;59.75;15.13;;;8.10;99.90;;;;;;4778266;29;20163;-88
2021/12/24 10:04:15;;;;;;;61.03;13.88;;;8.10;99.90;;;;;;4774068;29;20042;-89
2021/12/24 10:06:59;;;;;;;44.28;13.60;;;8.20;99.90;;;;;;4776781;29;20449;-87
2021/12/24 10:09:32;;;;;;;62.38;14.52;;;8.20;99.90;;;;;;4768211;29;20061;-90
2021/12/24 10:12:07;;;;;;;54.53;15.95;;;8.20;99.90;;;;;;4772514;29;20502;-90
2021/12/24 10:14:37;;;;;;;58.13;15.13;;;8.20;99.90;;;;;;4777435;29;20039;-87
2021/12/24 10:17:12;;;;;;;57.63;14.80;;;8.20;99.90;;;;;;4773283;29;20058;-89
2021/12/24 10:19:49;;;;;;;62.53;16.02;;;8.10;99.90;;;;;;4760419;29;20658;-89
2021/12/24 10:22:16;;;;;;;64.80;16.35;;;8.20;99.90;;;;;;4778996;29;20074;-88
2021/12/24 10:24:42;;;;;;;80.20;17.27;;;8.20;99.90;;;;;;4762147;29;20051;-89
2021/12/24 10:27:08;;;;;;;76.25;17.95;;;8.30;99.90;;;;;;4776257;29;20039;-87
2021/12/24 10:29:38;;;;;;;64.75;16.05;;;8.20;99.90;;;;;;4761723;29;20415;-89
2021/12/24 10:32:16;;;;;;;60.08;16.85;;;8.20;99.90;;;;;;4765842;29;20067;-90
2021/12/24 11:00:46;;;;;;;5.13;3.05;;;8.20;99.90;;;;;;4773029;29;20047;-87
2021/12/24 11:03:22;;;;;;;8.43;4.13;;;8.00;99.90;;;;;;4760850;30;20044;-88
2021/12/24 11:08:26;;;;;;;10.35;6.53;;;7.40;99.90;;;;;;5234730;24;20047;-87
2021/12/24 11:11:17;;;;;;;9.38;5.93;;;7.20;99.90;;;;;;4807181;29;20054;-87
2021/12/24 11:13:49;;;;;;;9.07;4.78;;;7.00;99.90;;;;;;4794620;29;20055;-87
2021/12/24 11:16:18;;;;;;;6.75;4.57;;;6.90;99.90;;;;;;4793772;29;20054;-88
2021/12/24 11:18:53;;;;;;;9.07;4.88;;;6.80;99.90;;;;;;4784809;29;20050;-88
2021/12/24 11:21:26;;;;;;;6.00;4.00;;;6.70;99.90;;;;;;4777397;29;20067;-86
2021/12/24 11:23:53;;;;;;;6.20;3.15;;;6.70;99.90;;;;;;4772818;29;20047;-87
2021/12/24 11:26:30;;;;;;;4.60;2.90;;;6.50;99.90;;;;;;4760080;29;20108;-87
2021/12/24 11:28:57;;;;;;;8.70;5.95;;;6.50;99.90;;;;;;4779775;29;20806;-87
2021/12/24 11:31:29;;;;;;;11.45;5.82;;;6.40;99.90;;;;;;4759613;29;20132;-88
2021/12/24 11:33:58;;;;;;;11.93;5.40;;;6.30;99.90;;;;;;4770980;29;20039;-87
2021/12/24 11:36:29;;;;;;;16.50;6.05;;;6.30;99.90;;;;;;4760184;29;21438;-87
2021/12/24 11:38:57;;;;;;;13.48;5.28;;;6.30;99.90;;;;;;4778127;29;20609;-87
2021/12/24 11:41:29;;;;;;;13.70;6.15;;;6.30;99.90;;;;;;4778656;29;20065;-87
2021/12/24 11:43:57;;;;;;;11.52;6.63;;;6.30;99.90;;;;;;4779229;29;20380;-86
2021/12/24 11:46:25;;;;;;;13.02;6.85;;;6.30;99.90;;;;;;4764365;29;20047;-89
2021/12/24 11:48:53;;;;;;;14.95;6.93;;;6.30;99.90;;;;;;4788191;29;20492;-87
2021/12/24 11:51:33;;;;;;;23.67;13.45;;;6.30;99.90;;;;;;4772211;29;20047;-88
2021/12/24 11:54:04;;;;;;;26.15;13.88;;;6.30;99.90;;;;;;4777100;29;20089;-87
2021/12/24 11:56:43;;;;;;;16.40;8.98;;;6.20;99.90;;;;;;4761559;29;20043;-89
2021/12/24 11:59:09;;;;;;;13.02;6.88;;;6.10;99.90;;;;;;4782846;29;20565;-88
2021/12/24 12:01:41;;;;;;;10.85;7.07;;;6.10;99.90;;;;;;4781662;29;20040;-88
2021/12/24 12:04:19;;;;;;;19.73;8.60;;;6.10;99.90;;;;;;4775250;29;20053;-89
2021/12/24 12:06:45;;;;;;;18.17;7.35;;;6.10;99.90;;;;;;4764656;29;20043;-88
2021/12/24 12:09:12;;;;;;;11.43;5.97;;;6.10;99.90;;;;;;4777458;29;20412;-87
2021/12/24 12:11:41;;;;;;;9.05;5.55;;;6.20;99.90;;;;;;4763664;29;20351;-86
2021/12/24 12:14:23;;;;;;;9.60;5.47;;;6.20;99.90;;;;;;4775842;29;20059;-87
2021/12/24 12:16:55;;;;;;;8.13;5.72;;;6.10;99.90;;;;;;4775254;29;20039;-88
2021/12/24 12:19:31;;;;;;;9.90;5.20;;;6.10;99.90;;;;;;4784147;29;20527;-88
2021/12/24 12:22:16;;;;;;;13.13;6.90;;;6.10;99.90;;;;;;4774763;29;20499;-88
2021/12/24 12:25:09;;;;;;;10.93;7.35;;;6.00;99.90;;;;;;4778065;29;20058;-88
2021/12/24 12:27:41;;;;;;;20.63;10.13;;;6.00;99.90;;;;;;4782777;29;20042;-86
2021/12/24 12:30:22;;;;;;;21.45;11.30;;;6.00;99.90;;;;;;4782186;29;20122;-88
2021/12/24 12:32:50;;;;;;;11.40;7.53;;;6.00;99.90;;;;;;4775065;29;20049;-88
2021/12/24 12:35:17;;;;;;;15.80;8.90;;;6.10;99.90;;;;;;4776088;29;20054;-87
2021/12/24 12:37:56;;;;;;;15.70;6.95;;;6.00;99.90;;;;;;4759892;29;20094;-87
2021/12/24 12:40:21;;;;;;;11.65;7.30;;;6.10;99.90;;;;;;4765296;29;20051;-88
2021/12/24 12:42:56;;;;;;;17.42;11.77;;;6.10;99.90;;;;;;4774628;29;20049;-89
2021/12/24 12:45:38;;;;;;;13.80;8.73;;;6.00;99.90;;;;;;4773965;29;20133;-88
2021/12/24 12:48:07;;;;;;;13.80;7.57;;;6.00;99.90;;;;;;4789734;29;20518;-87
2021/12/24 12:50:34;;;;;;;20.58;8.10;;;6.00;99.90;;;;;;4774034;29;20480;-87
2021/12/24 12:53:22;;;;;;;15.07;7.55;;;6.00;99.90;;;;;;4772406;29;20427;-87
2021/12/24 12:56:08;;;;;;;17.63;7.90;;;6.00;99.90;;;;;;4775442;29;20491;-87
2021/12/24 12:58:35;;;;;;;18.13;9.23;;;6.10;99.90;;;;;;4773993;29;20050;-88
2021/12/24 13:01:17;;;;;;;17.83;7.85;;;6.10;99.90;;;;;;4777663;29;20043;-88
2021/12/24 13:04:06;;;;;;;12.70;6.85;;;6.10;99.90;;;;;;4776335;29;20051;-87
2021/12/24 13:06:41;;;;;;;20.13;8.40;;;6.10;99.90;;;;;;4771069;29;20055;-88
2021/12/24 13:09:11;;;;;;;22.88;9.00;;;6.10;99.90;;;;;;4776707;29;20050;-88
2021/12/24 13:11:39;;;;;;;13.20;6.72;;;6.10;99.90;;;;;;4772662;29;20115;-88
2021/12/24 13:14:09;;;;;;;12.20;6.88;;;6.10;99.90;;;;;;4778970;29;20503;-88
2021/12/24 13:16:47;;;;;;;17.67;8.43;;;6.10;99.90;;;;;;4780631;29;20049;-88
2021/12/24 13:24:55;;;;;;;42.95;9.98;;;6.20;99.90;;;;;;4786150;29;20163;-88
2021/12/24 13:27:25;;;;;;;9.25;5.50;;;6.20;99.90;;;;;;4779413;29;20049;-90
2021/12/24 13:30:04;;;;;;;12.95;5.72;;;6.20;99.90;;;;;;4777376;29;20071;-88
2021/12/24 13:32:30;;;;;;;12.75;6.63;;;6.20;99.90;;;;;;4778037;29;20083;-89
2021/12/24 13:34:56;;;;;;;10.38;6.32;;;6.20;99.90;;;;;;4749193;29;20065;-89
2021/12/24 13:37:29;;;;;;;7.47;5.00;;;6.30;99.90;;;;;;4778678;29;20054;-90
2021/12/24 13:39:55;;;;;;;9.57;5.30;;;6.20;99.90;;;;;;4793714;29;20081;-90
2021/12/24 13:42:21;;;;;;;9.18;4.60;;;6.20;99.90;;;;;;4776129;29;20046;-88
2021/12/24 13:44:57;;;;;;;6.05;4.20;;;6.20;99.90;;;;;;4746462;29;20043;-90
2021/12/24 13:47:51;;;;;;;5.90;4.50;;;6.20;99.90;;;;;;4772516;29;20039;-90
2021/12/24 13:55:35;;;;;;;10.18;5.63;;;6.10;99.90;;;;;;4773025;29;20085;-89
2021/12/24 13:58:05;;;;;;;12.73;6.43;;;6.20;99.90;;;;;;4776030;29;20043;-88
2021/12/24 14:00:35;;;;;;;13.05;5.65;;;6.10;99.90;;;;;;4784944;29;20054;-88
2021/12/24 14:03:04;;;;;;;15.57;6.20;;;6.10;99.90;;;;;;4776325;29;20546;-88
2021/12/24 14:05:30;;;;;;;16.02;6.40;;;6.20;99.90;;;;;;4783622;29;20150;-88
2021/12/24 14:08:16;;;;;;;14.18;6.40;;;6.20;99.90;;;;;;4757691;29;20245;-88
2021/12/24 14:10:43;;;;;;;15.48;5.80;;;6.10;99.90;;;;;;4791510;29;20059;-88
2021/12/24 14:13:17;;;;;;;14.38;5.90;;;6.20;99.90;;;;;;4771299;29;20042;-89
2021/12/24 14:15:57;;;;;;;15.77;6.38;;;6.10;99.90;;;;;;4775463;29;20094;-88
2021/12/24 14:18:32;;;;;;;19.08;6.20;;;6.10;99.90;;;;;;4779378;29;20084;-88
2021/12/24 14:21:45;;;;;;;10.95;5.95;;;6.10;99.90;;;;;;4762134;29;20051;-88
2021/12/24 14:23:46;;;;;;;17.30;6.55;;;6.10;99.90;;;;;;4773992;29;20055;-88
2021/12/24 14:26:18;;;;;;;18.80;7.10;;;6.10;99.90;;;;;;4744655;29;20053;-88
2021/12/24 14:28:53;;;;;;;22.45;6.93;;;6.10;99.90;;;;;;4765585;29;20054;-88
2021/12/24 14:31:19;;;;;;;7.97;5.50;;;6.10;99.90;;;;;;4773821;29;20061;-88
2021/12/24 14:33:48;;;;;;;23.42;7.25;;;6.10;99.90;;;;;;4750430;29;20043;-87
2021/12/24 14:36:19;;;;;;;15.27;7.70;;;6.10;99.90;;;;;;4763752;29;20118;-88
2021/12/24 14:38:45;;;;;;;27.27;9.20;;;6.10;99.90;;;;;;4774306;29;20071;-88
2021/12/24 14:41:18;;;;;;;14.25;6.70;;;6.10;99.90;;;;;;4773903;29;20600;-88
2021/12/24 14:43:44;;;;;;;12.32;6.72;;;6.10;99.90;;;;;;4771934;29;20046;-88
2021/12/24 14:46:10;;;;;;;19.95;7.72;;;6.10;99.90;;;;;;4775948;29;20289;-87
2021/12/24 14:48:36;;;;;;;29.10;8.32;;;6.10;99.90;;;;;;4763215;29;20042;-87
2021/12/24 14:51:09;;;;;;;11.93;7.13;;;6.10;99.90;;;;;;4761888;29;20062;-87
2021/12/24 14:53:45;;;;;;;32.15;9.02;;;6.00;99.90;;;;;;4790343;29;20061;-87
2021/12/24 14:56:15;;;;;;;10.70;6.55;;;6.00;99.90;;;;;;4768204;29;20039;-87
2021/12/24 14:58:47;;;;;;;20.23;8.13;;;6.00;99.90;;;;;;4769399;29;20525;-88
2021/12/24 15:01:17;;;;;;;9.87;6.50;;;6.00;99.90;;;;;;4778135;29;20043;-88
2021/12/24 15:03:46;;;;;;;19.15;8.07;;;6.00;99.90;;;;;;4779270;29;20050;-88
2021/12/24 15:06:20;;;;;;;13.85;7.30;;;5.90;99.90;;;;;;4775057;29;20054;-87